マガダン の空港の天気 - METARとTAF

マガダン・ソコル空港 ( UHMM / GDX ) - ロシア マガダン
飛行場実況気象(Metar)
観測時間12/14 17:00 MAGT (12/14 06:00 UTC)
風向・風速東南東 1m/s
視程10km以上
天気現象
少しの雲 雲底高度 1220m
気温-33℃
湿度74%
気圧1007hPa
METARUHMM 140600Z 11001MPS 9999 FEW040 M33/M36 Q1007 R10/82//45 NOSIG RMK QFE740
過去の天気等 Google飛行場航空写真 Wunderground天気予報

過去48時間のMETAR

飛行場予報(TAF)
発表時間: 12/14 15:45 MAGT (12/14 04:45 UTC)
予報対象時間: 14日17時 MAGT ~ 15日23時 MAGT
風向・風速東 3m/s
視程10km以上
全天の4割程度の雲 雲底高度 910m
15日0時 MAGT ~ 15日11時 MAGT に一時的に
視程3100m
天気現象もや
少しの雲 雲底高度 180m
TAF UHMM 140445Z 1406/1512 10003MPS 9999 SCT030
TEMPO 1413/1424 3100 BR FEW006